createdAt,value
2018-02-08T00:00:51.947Z,21.10
2018-02-08T00:03:19.388Z,19.33
2018-02-08T00:05:46.822Z,22.85
2018-02-08T00:08:14.277Z,22.50
2018-02-08T00:10:41.882Z,20.37
2018-02-08T00:13:09.524Z,20.98
2018-02-08T00:15:36.970Z,21.23
2018-02-08T00:18:04.426Z,19.55
2018-02-08T00:20:31.854Z,22.75
2018-02-08T00:22:59.298Z,21.80
2018-02-08T00:25:27.504Z,21.33
2018-02-08T00:27:54.977Z,20.43
2018-02-08T00:30:22.422Z,22.35
2018-02-08T00:32:49.873Z,20.15
2018-02-08T00:35:17.321Z,18.67
2018-02-08T00:37:44.768Z,19.23
2018-02-08T00:40:12.217Z,22.40
2018-02-08T00:42:39.661Z,20.37
2018-02-08T00:45:07.862Z,21.23
2018-02-08T00:47:35.347Z,20.23
2018-02-08T00:50:02.790Z,21.17
2018-02-08T00:52:30.238Z,21.93
2018-02-08T00:54:57.687Z,23.17
2018-02-08T00:57:25.281Z,19.27
2018-02-08T00:59:52.720Z,20.10
2018-02-08T01:02:20.169Z,20.75
2018-02-08T01:04:47.657Z,20.10
2018-02-08T01:07:15.085Z,23.40
2018-02-08T01:09:42.568Z,21.63
2018-02-08T01:12:10.013Z,21.30
2018-02-08T01:14:37.485Z,21.40
2018-02-08T01:17:04.916Z,23.87
2018-02-08T01:19:32.352Z,21.95
2018-02-08T01:21:59.810Z,21.35
2018-02-08T01:24:27.305Z,21.15
2018-02-08T01:26:54.738Z,23.13
2018-02-08T01:29:22.193Z,21.83
2018-02-08T01:31:49.662Z,22.15
2018-02-08T01:34:17.117Z,22.30
2018-02-08T01:36:44.569Z,22.13
2018-02-08T01:39:12.026Z,21.75
2018-02-08T01:41:39.488Z,20.58
2018-02-08T01:44:06.929Z,19.62
2018-02-08T01:46:34.379Z,22.33
2018-02-08T01:49:01.869Z,19.80
2018-02-08T01:51:29.312Z,21.55
2018-02-08T01:53:56.785Z,21.48
2018-02-08T01:56:24.209Z,20.90
2018-02-08T01:58:51.678Z,22.45
2018-02-08T02:01:19.133Z,24.00
2018-02-08T02:03:46.578Z,22.53
2018-02-08T02:06:14.030Z,20.52
2018-02-08T02:08:41.473Z,24.87
2018-02-08T02:11:08.930Z,23.55
2018-02-08T02:13:36.369Z,22.55
2018-02-08T02:16:04.582Z,22.02
2018-02-08T02:18:32.037Z,22.27
2018-02-08T02:20:59.630Z,24.10
2018-02-08T02:23:27.074Z,23.90
2018-02-08T02:25:54.520Z,21.05
2018-02-08T02:28:21.993Z,22.20
2018-02-08T02:30:49.550Z,21.87
2018-02-08T02:33:16.997Z,23.17
2018-02-08T02:35:44.459Z,22.25
2018-02-08T02:38:11.901Z,26.67
2018-02-08T02:40:39.339Z,23.20
2018-02-08T02:43:06.784Z,24.17
2018-02-08T02:45:34.287Z,22.95
2018-02-08T02:48:01.801Z,24.77
2018-02-08T02:50:29.238Z,26.92
2018-02-08T02:52:57.473Z,28.43
2018-02-08T02:55:25.112Z,25.33
2018-02-08T02:57:52.563Z,31.58
2018-02-08T03:00:20.006Z,28.85
2018-02-08T03:02:47.453Z,31.95
2018-02-08T03:05:14.893Z,27.85
2018-02-08T03:07:43.125Z,27.35
2018-02-08T03:10:10.693Z,27.55
2018-02-08T03:12:38.151Z,28.80
2018-02-08T03:15:05.609Z,27.05
2018-02-08T03:17:33.149Z,30.02
2018-02-08T03:20:00.590Z,26.10
2018-02-08T03:22:28.022Z,33.35
2018-02-08T03:24:56.226Z,29.50
2018-02-08T03:27:23.809Z,32.08
2018-02-08T03:29:51.261Z,25.90
2018-02-08T03:32:18.814Z,30.70
2018-02-08T03:34:46.270Z,28.62
2018-02-08T03:37:13.934Z,29.00
2018-02-08T03:39:41.392Z,29.70
2018-02-08T03:42:08.857Z,29.85
2018-02-08T03:44:36.311Z,28.87
2018-02-08T03:47:03.751Z,27.42
2018-02-08T03:49:31.297Z,28.83
2018-02-08T03:51:58.721Z,30.60
2018-02-08T03:54:26.237Z,30.17
2018-02-08T03:56:53.698Z,29.60
2018-02-08T03:59:21.154Z,29.40
2018-02-08T04:01:48.595Z,28.40
2018-02-08T04:04:16.024Z,28.73
2018-02-08T04:06:43.468Z,27.65
2018-02-08T04:09:10.893Z,26.62
2018-02-08T04:11:38.428Z,26.47
2018-02-08T04:14:05.901Z,29.42
2018-02-08T04:16:33.418Z,25.70
2018-02-08T04:19:00.933Z,30.25
2018-02-08T04:21:28.374Z,27.20
2018-02-08T04:23:55.817Z,28.43
2018-02-08T04:26:23.285Z,30.20
2018-02-08T04:28:50.736Z,29.20
2018-02-08T04:31:18.190Z,32.30
2018-02-08T04:33:45.627Z,26.77
2018-02-08T04:36:13.202Z,30.48
2018-02-08T04:38:52.532Z,25.90
2018-02-08T04:41:32.053Z,25.57
2018-02-08T04:44:17.247Z,27.55
2018-02-08T04:46:50.658Z,30.25
2018-02-08T04:49:18.108Z,31.87
2018-02-08T04:51:45.652Z,31.02
2018-02-08T04:54:13.099Z,25.98
2018-02-08T04:56:40.536Z,26.80
2018-02-08T04:59:08.006Z,28.23
2018-02-08T05:01:35.442Z,26.50
2018-02-08T05:04:02.943Z,27.33
2018-02-08T05:06:30.390Z,26.42
2018-02-08T05:08:57.982Z,27.37
2018-02-08T05:11:25.385Z,27.40
2018-02-08T05:13:52.833Z,26.00
2018-02-08T05:16:20.333Z,29.80
2018-02-08T05:18:47.996Z,27.67
2018-02-08T05:21:15.454Z,30.48
2018-02-08T05:23:42.990Z,31.62
2018-02-08T05:26:10.426Z,30.17
2018-02-08T05:28:37.925Z,28.75
2018-02-08T05:31:05.375Z,27.55
2018-02-08T05:33:32.813Z,27.65
2018-02-08T05:36:00.377Z,28.48
2018-02-08T05:38:27.822Z,26.30
2018-02-08T05:40:55.253Z,29.08
2018-02-08T05:43:22.717Z,28.02
2018-02-08T05:45:50.161Z,29.00
2018-02-08T05:48:18.373Z,29.95
2018-02-08T05:50:45.866Z,29.12
2018-02-08T05:53:13.321Z,31.33
2018-02-08T05:55:40.781Z,29.48
2018-02-08T05:58:08.229Z,31.37
2018-02-08T06:00:35.750Z,29.12
2018-02-08T06:03:03.193Z,30.70
2018-02-08T06:05:30.713Z,27.90
2018-02-08T06:07:58.174Z,30.62
2018-02-08T06:10:25.628Z,31.08
2018-02-08T06:12:53.073Z,31.05
2018-02-08T06:15:20.526Z,30.45
2018-02-08T06:17:47.948Z,34.15
2018-02-08T06:20:15.541Z,27.45
2018-02-08T06:22:42.984Z,30.75
2018-02-08T06:25:10.520Z,29.60
2018-02-08T06:27:37.947Z,31.17
2018-02-08T06:30:06.150Z,28.08
2018-02-08T06:32:33.636Z,29.70
2018-02-08T06:35:01.150Z,33.40
2018-02-08T06:37:28.580Z,35.78
2018-02-08T06:39:56.839Z,31.03
2018-02-08T06:42:24.394Z,30.77
2018-02-08T06:44:51.879Z,34.08
2018-02-08T06:47:19.313Z,32.78
2018-02-08T06:49:46.794Z,33.05
2018-02-08T06:52:15.012Z,31.75
2018-02-08T06:54:42.493Z,31.05
2018-02-08T06:57:09.957Z,32.63
2018-02-08T06:59:37.584Z,41.90
2018-02-08T07:02:05.053Z,34.95
2018-02-08T07:04:32.525Z,33.55
2018-02-08T07:07:00.251Z,46.03
2018-02-08T07:09:27.684Z,32.15
2018-02-08T07:11:55.124Z,33.80
2018-02-08T07:14:23.354Z,34.28
2018-02-08T07:16:50.798Z,34.63
2018-02-08T07:19:18.277Z,38.63
2018-02-08T07:21:45.964Z,35.83
2018-02-08T07:24:13.521Z,41.28
2018-02-08T07:26:41.031Z,36.00
2018-02-08T07:29:08.487Z,33.20
2018-02-08T07:31:35.918Z,35.20
2018-02-08T07:34:04.135Z,32.50
2018-02-08T07:36:31.561Z,34.80
2018-02-08T07:38:59.034Z,34.05
2018-02-08T07:41:26.521Z,34.78
2018-02-08T07:43:53.969Z,33.42
2018-02-08T07:46:21.461Z,35.05
2018-02-08T07:48:48.913Z,34.35
2018-02-08T07:51:17.158Z,36.72
2018-02-08T07:53:44.589Z,34.08
2018-02-08T07:56:12.033Z,35.08
2018-02-08T07:58:39.498Z,30.70
2018-02-08T08:01:06.936Z,32.63
2018-02-08T08:03:35.233Z,26.92
2018-02-08T08:06:02.744Z,28.10
2018-02-08T08:08:30.364Z,31.00
2018-02-08T08:10:57.853Z,31.42
2018-02-08T08:13:25.407Z,31.62
2018-02-08T08:15:52.867Z,32.78
2018-02-08T08:18:20.405Z,27.53
2018-02-08T08:20:47.846Z,26.27
2018-02-08T08:23:15.326Z,28.12
2018-02-08T08:25:42.772Z,27.83
2018-02-08T08:28:10.197Z,25.15
2018-02-08T08:30:37.648Z,27.73
2018-02-08T08:33:05.105Z,33.00
2018-02-08T08:35:32.542Z,28.08
2018-02-08T08:38:00.746Z,26.85
2018-02-08T08:40:28.202Z,30.45
2018-02-08T08:42:55.777Z,31.17
2018-02-08T08:45:23.445Z,26.73
2018-02-08T08:47:50.881Z,30.90
2018-02-08T08:50:18.329Z,31.23
2018-02-08T08:52:45.809Z,29.02
2018-02-08T08:55:13.287Z,30.30
2018-02-08T08:57:41.546Z,29.75
2018-02-08T09:00:09.006Z,28.60
2018-02-08T09:02:36.444Z,27.52
2018-02-08T09:05:03.938Z,31.45
2018-02-08T09:07:31.370Z,32.35
2018-02-08T09:09:58.822Z,31.60
2018-02-08T09:12:26.264Z,30.55
2018-02-08T09:14:53.695Z,32.38
2018-02-08T09:17:22.373Z,35.40
2018-02-08T09:19:50.582Z,40.53
2018-02-08T09:22:18.070Z,37.13
2018-02-08T09:24:45.507Z,36.38
2018-02-08T09:27:12.978Z,37.25
2018-02-08T09:29:40.415Z,30.92
2018-02-08T09:32:07.856Z,33.47
2018-02-08T09:34:35.346Z,35.60
2018-02-08T09:37:02.907Z,33.05
2018-02-08T09:39:30.345Z,36.80
2018-02-08T09:41:57.961Z,33.70
2018-02-08T09:44:25.394Z,37.92
2018-02-08T09:46:52.849Z,37.17
2018-02-08T09:49:20.301Z,38.05
2018-02-08T09:51:47.810Z,33.40
2018-02-08T09:54:15.294Z,35.67
2018-02-08T09:56:42.725Z,36.67
2018-02-08T09:59:10.238Z,38.88
2018-02-08T10:01:37.739Z,37.30
2018-02-08T10:04:05.226Z,39.80
2018-02-08T10:06:32.670Z,39.40
2018-02-08T10:09:00.146Z,32.10
2018-02-08T10:11:27.600Z,38.05
2018-02-08T10:13:55.060Z,32.83
2018-02-08T10:16:22.517Z,35.53
2018-02-08T10:18:50.794Z,34.90
2018-02-08T10:21:18.250Z,32.30
2018-02-08T10:23:45.787Z,38.13
2018-02-08T10:26:13.222Z,38.10
2018-02-08T10:28:40.674Z,35.15
2018-02-08T10:31:08.149Z,35.80
2018-02-08T10:33:35.609Z,36.90
2018-02-08T10:36:03.111Z,33.40
2018-02-08T10:38:30.633Z,35.90
2018-02-08T10:40:58.076Z,36.10
2018-02-08T10:43:25.511Z,30.40
2018-02-08T10:45:52.990Z,33.28
2018-02-08T10:48:20.433Z,31.42
2018-02-08T10:50:47.890Z,40.47
2018-02-08T10:53:15.366Z,29.90
2018-02-08T10:55:42.816Z,32.53
2018-02-08T10:58:10.257Z,35.72
2018-02-08T11:00:37.682Z,30.25
2018-02-08T11:03:05.989Z,32.72
2018-02-08T11:05:33.468Z,28.83
2018-02-08T11:08:00.915Z,35.03
2018-02-08T11:10:28.374Z,35.60
2018-02-08T11:12:55.953Z,31.00
2018-02-08T11:15:23.405Z,34.85
2018-02-08T11:17:51.753Z,34.05
2018-02-08T11:20:19.241Z,31.40
2018-02-08T11:22:46.694Z,34.35
2018-02-08T11:25:14.146Z,38.38
2018-02-08T11:27:41.597Z,43.47
2018-02-08T11:30:09.136Z,30.85
2018-02-08T11:32:36.617Z,36.75
2018-02-08T11:35:04.169Z,34.38
2018-02-08T11:37:31.626Z,34.53
2018-02-08T11:39:59.082Z,37.40
2018-02-08T11:42:26.507Z,44.53
2018-02-08T11:44:54.093Z,33.22
2018-02-08T11:47:21.531Z,38.08
2018-02-08T11:49:48.990Z,38.35
2018-02-08T11:52:16.445Z,39.17
2018-02-08T11:54:43.897Z,36.55
2018-02-08T11:57:11.341Z,39.28
2018-02-08T11:59:38.832Z,38.10
2018-02-08T12:02:06.322Z,37.63
2018-02-08T12:04:33.769Z,40.70
2018-02-08T12:07:01.202Z,40.30
2018-02-08T12:09:28.743Z,37.97
2018-02-08T12:11:56.346Z,39.25
2018-02-08T12:14:24.680Z,39.30
2018-02-08T12:16:52.185Z,36.50
2018-02-08T12:19:19.626Z,37.53
2018-02-08T12:21:47.162Z,40.07
2018-02-08T12:24:14.741Z,39.13
2018-02-08T12:26:42.185Z,45.42
2018-02-08T12:29:09.637Z,39.38
2018-02-08T12:31:37.184Z,41.22
2018-02-08T12:34:04.738Z,36.67
2018-02-08T12:36:32.177Z,39.65
2018-02-08T12:38:59.792Z,38.42
2018-02-08T12:41:27.254Z,39.85
2018-02-08T12:43:54.759Z,43.35
2018-02-08T12:46:22.185Z,45.17
2018-02-08T12:48:50.442Z,35.60
2018-02-08T12:51:17.992Z,43.90
2018-02-08T12:53:45.624Z,43.08
2018-02-08T12:56:13.050Z,41.83
2018-02-08T12:58:40.500Z,40.83
2018-02-08T13:01:08.744Z,44.22
2018-02-08T13:03:36.269Z,43.63
2018-02-08T13:06:03.693Z,42.40
2018-02-08T13:08:31.189Z,41.37
2018-02-08T13:10:58.649Z,39.80
2018-02-08T13:13:27.351Z,42.28
2018-02-08T13:15:54.815Z,48.15
2018-02-08T13:18:22.266Z,42.42
2018-02-08T13:20:49.706Z,45.35
2018-02-08T13:23:17.169Z,43.65
2018-02-08T13:25:44.741Z,44.50
2018-02-08T13:28:12.169Z,47.85
2018-02-08T13:30:39.669Z,43.08
2018-02-08T13:33:07.118Z,46.37
2018-02-08T13:35:34.648Z,52.50
2018-02-08T13:38:02.114Z,51.63
2018-02-08T13:40:41.420Z,49.45
2018-02-08T13:43:08.894Z,52.40
2018-02-08T13:45:36.361Z,44.03
2018-02-08T13:51:13.005Z,47.60
2018-02-08T13:54:01.401Z,51.13
2018-02-08T13:59:31.841Z,51.92
2018-02-08T14:02:00.082Z,47.10
2018-02-08T14:04:27.506Z,50.90
2018-02-08T14:06:55.747Z,58.35
2018-02-08T14:09:23.202Z,52.70
2018-02-08T14:11:50.686Z,59.72
2018-02-08T14:14:18.230Z,56.05
2018-02-08T14:16:45.677Z,54.90
2018-02-08T14:19:13.132Z,56.10
2018-02-08T14:21:40.578Z,56.33
2018-02-08T14:24:08.041Z,52.55
2018-02-08T14:26:35.492Z,53.00
2018-02-08T14:29:02.946Z,51.75
2018-02-08T14:31:30.410Z,51.55
2018-02-08T14:33:57.941Z,55.33
2018-02-08T14:36:25.376Z,53.90
2018-02-08T14:38:53.614Z,53.58
2018-02-08T14:41:21.057Z,54.00
2018-02-08T14:43:48.697Z,52.25
2018-02-08T14:46:16.103Z,58.50
2018-02-08T14:48:44.356Z,54.63
2018-02-08T14:51:13.306Z,54.67
2018-02-08T14:53:40.901Z,56.53
2018-02-08T14:56:08.356Z,55.90
2018-02-08T14:58:35.874Z,58.58
2018-02-08T15:01:03.322Z,57.90
2018-02-08T15:03:31.547Z,58.10
2018-02-08T15:05:59.004Z,59.85
2018-02-08T15:08:26.456Z,58.10
2018-02-08T15:10:54.025Z,55.05
2018-02-08T15:13:21.478Z,56.30
2018-02-08T15:15:48.935Z,59.33
2018-02-08T15:18:16.581Z,57.10
2018-02-08T15:20:44.058Z,58.38
2018-02-08T15:23:11.521Z,57.80
2018-02-08T15:25:39.084Z,53.75
2018-02-08T15:28:06.531Z,58.95
2018-02-08T15:30:34.003Z,57.15
2018-02-08T15:33:01.546Z,56.22
2018-02-08T15:35:28.986Z,57.60
2018-02-08T15:37:56.528Z,57.38
2018-02-08T15:40:23.977Z,59.15
2018-02-08T15:42:51.417Z,59.53
2018-02-08T15:45:18.895Z,62.05
2018-02-08T15:47:47.081Z,58.92
2018-02-08T15:50:14.523Z,53.90
2018-02-08T15:52:41.964Z,57.20
2018-02-08T15:55:10.506Z,59.35
2018-02-08T15:57:38.010Z,61.55
2018-02-08T16:00:05.512Z,60.65
2018-02-08T16:02:32.937Z,59.60
2018-02-08T16:05:00.513Z,65.95
2018-02-08T16:07:27.966Z,56.95
2018-02-08T16:09:55.423Z,62.90
2018-02-08T16:12:22.974Z,64.22
2018-02-08T16:14:50.410Z,63.03
2018-02-08T16:17:17.842Z,68.77
2018-02-08T16:19:45.272Z,60.80
2018-02-08T16:22:12.719Z,63.70
2018-02-08T16:24:40.339Z,60.27
2018-02-08T16:27:07.778Z,66.68
2018-02-08T16:29:35.296Z,60.97
2018-02-08T16:32:02.740Z,66.15
2018-02-08T16:34:30.820Z,59.10
2018-02-08T16:36:58.282Z,61.80
2018-02-08T16:39:25.697Z,63.53
2018-02-08T16:41:53.143Z,60.17
2018-02-08T16:44:20.603Z,61.63
2018-02-08T16:46:48.088Z,62.03
2018-02-08T16:49:15.544Z,63.17
2018-02-08T16:51:43.033Z,63.25
2018-02-08T16:54:11.250Z,66.20
2018-02-08T16:56:38.719Z,66.40
2018-02-08T16:59:06.898Z,62.53
2018-02-08T17:01:34.350Z,58.37
2018-02-08T17:04:01.780Z,60.10
2018-02-08T17:06:29.225Z,57.92
2018-02-08T17:08:56.664Z,63.10
2018-02-08T17:11:25.388Z,63.42
2018-02-08T17:13:52.810Z,59.67
2018-02-08T17:16:21.264Z,59.75
2018-02-08T17:18:48.698Z,67.87
2018-02-08T17:21:16.165Z,66.10
2018-02-08T17:23:43.608Z,64.03
2018-02-08T17:26:11.061Z,68.75
2018-02-08T17:28:38.564Z,62.13
2018-02-08T17:31:06.792Z,66.97
2018-02-08T17:33:34.261Z,62.70
2018-02-08T17:36:01.698Z,66.05
2018-02-08T17:38:29.142Z,67.50
2018-02-08T17:40:56.597Z,65.15
2018-02-08T17:43:24.050Z,57.57
2018-02-08T17:45:51.517Z,60.83
2018-02-08T17:48:18.969Z,66.20
2018-02-08T17:50:46.553Z,62.05
2018-02-08T17:53:14.009Z,66.82
2018-02-08T17:55:41.561Z,74.97
2018-02-08T17:58:09.017Z,74.07
2018-02-08T18:00:36.460Z,64.37
2018-02-08T18:03:03.913Z,66.22
2018-02-08T18:05:31.374Z,62.10
2018-02-08T18:07:58.949Z,63.03
2018-02-08T18:10:26.593Z,68.53
2018-02-08T18:12:54.075Z,72.53
2018-02-08T18:15:21.517Z,67.03
2018-02-08T18:17:48.994Z,65.95
2018-02-08T18:20:16.449Z,65.75
2018-02-08T18:22:43.893Z,66.32
2018-02-08T18:25:11.319Z,72.03
2018-02-08T18:27:38.805Z,62.10
2018-02-08T18:30:06.233Z,58.90
2018-02-08T18:32:33.721Z,64.53
2018-02-08T18:35:01.159Z,66.07
2018-02-08T18:37:28.629Z,62.28
2018-02-08T18:39:56.090Z,61.88
2018-02-08T18:42:23.517Z,56.17
2018-02-08T18:44:50.964Z,60.72
2018-02-08T18:47:18.461Z,64.25
2018-02-08T18:49:45.904Z,66.22
2018-02-08T18:52:13.345Z,66.60
2018-02-08T18:54:40.922Z,58.33
2018-02-08T18:57:08.365Z,64.10
2018-02-08T18:59:35.801Z,59.33
2018-02-08T19:02:03.248Z,63.22
2018-02-08T19:04:31.462Z,61.15
2018-02-08T19:06:58.884Z,66.82
2018-02-08T19:09:26.329Z,68.32
2018-02-08T19:11:54.539Z,82.82
2018-02-08T19:14:21.967Z,64.95
2018-02-08T19:16:49.393Z,58.42
2018-02-08T19:19:16.837Z,59.78
2018-02-08T19:21:44.262Z,66.80
2018-02-08T19:24:11.736Z,60.17
2018-02-08T19:26:39.204Z,62.87
2018-02-08T19:29:06.646Z,59.22
2018-02-08T19:31:34.096Z,59.67
2018-02-08T19:34:01.553Z,58.17
2018-02-08T19:36:29.037Z,61.28
2018-02-08T19:38:56.469Z,63.85
2018-02-08T19:41:23.900Z,55.42
2018-02-08T19:43:51.321Z,65.85
2018-02-08T19:46:19.530Z,60.40
2018-02-08T19:48:47.203Z,61.55
2018-02-08T19:51:14.650Z,58.58
2018-02-08T19:53:42.061Z,60.12
2018-02-08T19:56:09.499Z,60.72
2018-02-08T19:58:36.929Z,61.03
2018-02-08T20:01:04.437Z,62.73
2018-02-08T20:03:32.675Z,61.58
2018-02-08T20:06:00.145Z,61.43
2018-02-08T20:08:27.983Z,59.75
2018-02-08T20:10:55.427Z,62.15
2018-02-08T20:13:22.858Z,57.30
2018-02-08T20:15:51.086Z,59.85
2018-02-08T20:18:18.535Z,58.13
2018-02-08T20:20:46.283Z,62.75
2018-02-08T20:23:13.883Z,64.33
2018-02-08T20:25:41.335Z,63.08
2018-02-08T20:28:08.792Z,64.82
2018-02-08T20:30:36.238Z,59.25
2018-02-08T20:33:03.786Z,63.85
2018-02-08T20:35:31.228Z,61.78
2018-02-08T20:37:58.904Z,63.75
2018-02-08T20:40:26.927Z,65.90
2018-02-08T20:43:00.047Z,64.05
2018-02-08T20:45:27.548Z,63.15
2018-02-08T20:47:54.989Z,71.40
2018-02-08T20:50:22.504Z,69.95
2018-02-08T20:52:49.969Z,65.95
2018-02-08T20:55:17.653Z,69.75
2018-02-08T20:57:45.118Z,64.28
2018-02-08T21:00:12.558Z,66.10
2018-02-08T21:02:39.998Z,63.58
2018-02-08T21:05:07.478Z,69.30
2018-02-08T21:07:34.936Z,63.58
2018-02-08T21:10:02.388Z,66.50
2018-02-08T21:12:29.852Z,65.57
2018-02-08T21:14:57.293Z,65.47
2018-02-08T21:17:24.771Z,70.65
2018-02-08T21:19:52.351Z,70.07
2018-02-08T21:22:19.793Z,68.35
2018-02-08T21:24:47.321Z,66.65
2018-02-08T21:27:14.773Z,69.50
2018-02-08T21:29:42.212Z,67.68
2018-02-08T21:32:09.689Z,65.10
2018-02-08T21:34:37.284Z,65.78
2018-02-08T21:37:04.662Z,61.90
2018-02-08T21:39:32.905Z,66.60
2018-02-08T21:42:00.473Z,67.37
2018-02-08T21:44:27.919Z,65.17
2018-02-08T21:46:55.353Z,68.75
2018-02-08T21:49:22.825Z,71.25
2018-02-08T21:51:50.287Z,70.37
2018-02-08T21:54:17.853Z,69.10
2018-02-08T21:56:45.473Z,69.55
2018-02-08T21:59:12.892Z,71.15
2018-02-08T22:01:41.120Z,73.70
2018-02-08T22:04:08.574Z,68.03
2018-02-08T22:06:36.037Z,65.62
2018-02-08T22:09:03.493Z,73.03
2018-02-08T22:11:30.949Z,69.30
2018-02-08T22:13:58.409Z,71.70
2018-02-08T22:16:25.867Z,73.47
2018-02-08T22:18:53.325Z,70.45
2018-02-08T22:21:21.060Z,76.18
2018-02-08T22:23:48.474Z,74.57
2018-02-08T22:26:16.742Z,72.67
2018-02-08T22:28:44.181Z,74.75
2018-02-08T22:31:11.638Z,76.80
2018-02-08T22:33:39.209Z,75.43
2018-02-08T22:36:06.654Z,74.62
2018-02-08T22:38:34.214Z,75.40
2018-02-08T22:41:01.753Z,69.72
2018-02-08T22:43:29.190Z,72.28
2018-02-08T22:45:56.625Z,78.72
2018-02-08T22:48:24.176Z,69.07
2018-02-08T22:50:52.118Z,78.32
2018-02-08T22:53:19.650Z,74.70
2018-02-08T22:55:47.124Z,68.93
2018-02-08T22:58:14.678Z,73.65
2018-02-08T23:00:42.128Z,76.85
2018-02-08T23:03:09.576Z,77.32
2018-02-08T23:05:37.022Z,74.82
2018-02-08T23:08:04.613Z,75.72
2018-02-08T23:10:32.162Z,75.45
2018-02-08T23:12:59.593Z,76.30
2018-02-08T23:15:27.038Z,80.20
2018-02-08T23:17:54.489Z,77.53
2018-02-08T23:20:21.993Z,76.30
2018-02-08T23:22:49.437Z,78.70
2018-02-08T23:25:16.894Z,72.62
2018-02-08T23:27:44.333Z,76.50
2018-02-08T23:30:11.813Z,79.70
2018-02-08T23:32:39.372Z,74.78
2018-02-08T23:35:06.819Z,77.80
2018-02-08T23:37:34.342Z,76.82
2018-02-08T23:40:01.769Z,78.93
2018-02-08T23:42:29.979Z,76.20
2018-02-08T23:44:57.415Z,75.47
2018-02-08T23:47:25.625Z,79.90
2018-02-08T23:49:53.069Z,72.37
2018-02-08T23:52:20.509Z,82.05
2018-02-08T23:54:48.005Z,73.75
2018-02-08T23:57:15.465Z,75.20
2018-02-08T23:59:42.918Z,78.55
